Time;durP1;ratioP1;P1;durP2;ratioP2;P2;SDS_P1;SDS_P2;PMS_P1;PMS_P2;Temp;Humidity;BMP_temperature;BMP_pressure;BME280_temperature;BME280_humidity;BME280_pressure;Samples;Min_cycle;Max_cycle;Signal;HPM_P1;HPM_P2
2023/01/16 00:01:10;;;;;;;;;;;;;;;2.99;81.05;99500.13;105113;1288;61310;-76
2023/01/16 00:03:36;;;;;;;;;;;;;;;2.98;81.02;99497.06;105156;1288;61314;-76
2023/01/16 00:06:02;;;;;;;;;;;;;;;2.97;81.03;99493.84;105280;1288;61237;-76
2023/01/16 00:08:27;;;;;;;;;;;;;;;2.96;81.09;99492.31;105198;1289;68827;-76
2023/01/16 00:10:52;;;;;;;;;;;;;;;2.95;81.06;99488.56;105030;1288;62463;-76
2023/01/16 00:13:18;;;;;;;;;;;;;;;2.95;81.08;99484.31;105117;1289;61273;-76
2023/01/16 00:15:44;;;;;;;;;;;;;;;2.94;81.03;99486.86;105200;1291;61539;-76
2023/01/16 00:18:10;;;;;;;;;;;;;;;2.95;80.99;99487.38;105097;1288;61161;-76
2023/01/16 00:20:35;;;;;;;;;;;;;;;2.95;81.02;99485.50;105182;1290;61285;-76
2023/01/16 00:23:00;;;;;;;;;;;;;;;2.95;81.02;99484.83;105171;1287;61275;-76
2023/01/16 00:25:26;;;;;;;;;;;;;;;2.94;81.00;99488.73;105055;1288;61341;-76
2023/01/16 00:27:51;;;;;;;;;;;;;;;2.95;81.01;99487.71;105085;1293;61248;-76
2023/01/16 00:30:16;;;;;;;;;;;;;;;2.94;80.99;99477.50;105269;1291;61287;-76
2023/01/16 00:32:42;;;;;;;;;;;;;;;2.95;80.96;99482.95;105184;1289;61378;-76
2023/01/16 00:35:07;;;;;;;;;;;;;;;2.95;80.96;99483.64;105183;1291;61264;-76
2023/01/16 00:37:32;;;;;;;;;;;;;;;2.94;80.92;99483.80;105246;1291;61236;-76
2023/01/16 00:39:58;;;;;;;;;;;;;;;2.94;80.95;99482.95;105121;1294;61289;-76
2023/01/16 00:42:23;;;;;;;;;;;;;;;2.94;80.91;99479.71;105223;1289;59379;-76
2023/01/16 00:44:48;;;;;;;;;;;;;;;2.94;80.93;99480.23;105103;1290;61479;-76
2023/01/16 00:47:14;;;;;;;;;;;;;;;2.95;80.93;99473.25;105215;1290;61400;-76
2023/01/16 00:49:39;;;;;;;;;;;;;;;2.96;80.88;99479.88;105222;1291;61282;-76
2023/01/16 00:52:05;;;;;;;;;;;;;;;2.96;80.93;99481.41;105083;1292;60017;-76
2023/01/16 00:54:30;;;;;;;;;;;;;;;2.95;80.80;99479.04;105258;1292;61394;-76
2023/01/16 00:56:55;;;;;;;;;;;;;;;2.95;80.84;99480.39;105226;1290;59706;-76
2023/01/16 00:59:21;;;;;;;;;;;;;;;2.95;80.79;99485.16;105086;1289;61247;-76
2023/01/16 01:01:46;;;;;;;;;;;;;;;2.95;80.82;99481.77;105090;1294;61208;-76
2023/01/16 01:04:12;;;;;;;;;;;;;;;2.96;80.88;99483.29;106212;1293;59526;-77
2023/01/16 01:06:38;;;;;;;;;;;;;;;2.95;80.81;99479.04;105574;1289;61397;-76
2023/01/16 01:09:03;;;;;;;;;;;;;;;2.96;80.82;99481.23;105268;1289;59399;-76
2023/01/16 01:11:28;;;;;;;;;;;;;;;2.96;80.74;99485.33;105128;1294;61278;-76
2023/01/16 01:13:54;;;;;;;;;;;;;;;2.96;80.74;99486.17;105218;1290;59047;-76
2023/01/16 01:16:19;;;;;;;;;;;;;;;2.96;80.73;99480.73;105982;1293;59266;-76
2023/01/16 01:18:44;;;;;;;;;;;;;;;2.97;80.70;99481.58;105270;1288;62067;-76
2023/01/16 01:21:10;;;;;;;;;;;;;;;2.97;80.69;99481.75;105523;1292;61246;-76
2023/01/16 01:23:36;;;;;;;;;;;;;;;2.97;80.75;99472.21;105204;1291;61240;-76
2023/01/16 01:26:27;;;;;;;;;;;;;;;2.98;80.71;99482.94;105226;1290;61254;-76
2023/01/16 01:28:52;;;;;;;;;;;;;;;2.97;80.70;99484.47;104532;1295;73985;-76
2023/01/16 01:31:18;;;;;;;;;;;;;;;2.97;80.67;99478.86;104570;1299;59334;-76
2023/01/16 01:33:43;;;;;;;;;;;;;;;2.96;80.61;99484.30;105647;1300;59255;-76
2023/01/16 01:36:09;;;;;;;;;;;;;;;2.96;80.68;99488.05;104904;1298;60575;-76
2023/01/16 01:38:34;;;;;;;;;;;;;;;2.97;80.57;99482.09;104549;1298;61319;-75
2023/01/16 01:41:00;;;;;;;;;;;;;;;2.96;80.61;99482.95;104457;1300;61512;-75
2023/01/16 01:43:48;;;;;;;;;;;;;;;2.96;80.68;99481.75;104566;1300;61296;-75
2023/01/16 01:46:19;;;;;;;;;;;;;;;2.97;80.67;99478.00;104327;1296;61143;-76
2023/01/16 01:48:45;;;;;;;;;;;;;;;2.97;80.63;99474.60;104528;1295;62579;-76
2023/01/16 01:51:16;;;;;;;;;;;;;;;2.99;80.66;99481.41;104331;1296;61284;-76
2023/01/16 01:53:50;;;;;;;;;;;;;;;3.02;80.62;99476.80;104546;1295;68396;-76
2023/01/16 01:56:22;;;;;;;;;;;;;;;3.05;80.67;99473.72;104427;1299;71395;-76
2023/01/16 01:58:49;;;;;;;;;;;;;;;3.09;80.63;99473.02;104487;1296;61191;-77
2023/01/16 02:01:14;;;;;;;;;;;;;;;3.13;80.70;99472.81;104509;1299;61347;-76
2023/01/16 02:03:42;;;;;;;;;;;;;;;3.17;80.64;99471.94;104520;1297;61267;-76
2023/01/16 02:06:12;;;;;;;;;;;;;;;3.20;80.64;99472.42;104622;1288;68505;-76
2023/01/16 02:08:38;;;;;;;;;;;;;;;3.23;80.60;99472.25;105043;1294;72770;-76
2023/01/16 02:11:25;;;;;;;;;;;;;;;3.26;80.58;99471.38;105051;1288;61408;-76
2023/01/16 02:13:51;;;;;;;;;;;;;;;3.31;80.53;99465.40;105046;1287;59637;-76
2023/01/16 02:19:16;;;;;;;;;;;;;;;3.36;80.52;99462.14;105120;1288;67345;-76
2023/01/16 02:21:50;;;;;;;;;;;;;;;3.37;80.47;99464.69;97866;1289;5003148;-76
2023/01/16 02:24:34;;;;;;;;;;;;;;;3.37;80.42;99464.69;106252;1288;59554;-77
2023/01/16 02:27:25;;;;;;;;;;;;;;;3.37;80.42;99467.75;106093;1288;73507;-77
2023/01/16 02:30:08;;;;;;;;;;;;;;;3.36;80.39;99458.05;104313;1298;68029;-77
2023/01/16 02:32:33;;;;;;;;;;;;;;;3.34;80.46;99462.83;104376;1296;71774;-76
2023/01/16 02:35:28;;;;;;;;;;;;;;;3.33;80.41;99463.17;105443;1302;59260;-77
2023/01/16 02:38:27;;;;;;;;;;;;;;;3.31;80.31;99462.67;105022;1308;59688;-77
2023/01/16 02:40:59;;;;;;;;;;;;;;;3.30;80.33;99463.02;104455;1308;74525;-77
2023/01/16 02:43:42;;;;;;;;;;;;;;;3.29;80.38;99464.39;104376;1309;69607;-77
2023/01/16 02:46:19;;;;;;;;;;;;;;;3.29;80.36;99464.21;104533;1308;72460;-77
2023/01/16 02:48:53;;;;;;;;;;;;;;;3.29;80.27;99462.86;104230;1311;280575;-77
2023/01/16 02:51:42;;;;;;;;;;;;;;;3.27;80.31;99466.61;104377;1309;61105;-77
2023/01/16 02:54:10;;;;;;;;;;;;;;;3.26;80.29;99462.36;103068;1314;72470;-76
2023/01/16 02:56:56;;;;;;;;;;;;;;;3.23;80.26;99462.03;102748;1314;69394;-76
2023/01/16 02:59:23;;;;;;;;;;;;;;;3.23;80.32;99459.65;102592;1317;72851;-76
2023/01/16 03:01:49;;;;;;;;;;;;;;;3.20;80.32;99460.17;102520;1318;61228;-76
2023/01/16 03:04:33;;;;;;;;;;;;;;;3.19;80.32;99461.71;103794;1315;59561;-76
2023/01/16 03:07:18;;;;;;;;;;;;;;;3.16;80.36;99463.60;104025;1315;74264;-76
2023/01/16 03:10:01;;;;;;;;;;;;;;;3.15;80.32;99463.77;104461;1309;69482;-76
2023/01/16 03:13:02;;;;;;;;;;;;;;;3.12;80.28;99464.13;104385;1308;71844;-76
2023/01/16 03:15:31;;;;;;;;;;;;;;;3.11;80.31;99457.52;104308;1310;59160;-77
2023/01/16 03:17:56;;;;;;;;;;;;;;;3.11;80.24;99457.35;104791;1305;59589;-77
2023/01/16 03:20:40;;;;;;;;;;;;;;;3.10;80.23;99453.10;104878;1307;59154;-77
2023/01/16 03:23:12;;;;;;;;;;;;;;;3.09;80.26;99447.14;104218;1305;68728;-77
2023/01/16 03:25:48;;;;;;;;;;;;;;;3.09;80.26;99444.77;103866;1308;71905;-77
2023/01/16 03:28:42;;;;;;;;;;;;;;;3.09;80.29;99443.39;103857;1304;62416;-77
2023/01/16 03:31:35;;;;;;;;;;;;;;;3.09;80.33;99443.40;103739;1314;59701;-77
2023/01/16 03:34:21;;;;;;;;;;;;;;;3.08;80.24;99446.80;103997;1303;74827;-77
2023/01/16 03:36:52;;;;;;;;;;;;;;;3.07;80.26;99448.85;103547;1315;67578;-77
2023/01/16 03:39:20;;;;;;;;;;;;;;;3.05;80.21;99448.02;103606;1311;71603;-77
2023/01/16 03:41:48;;;;;;;;;;;;;;;3.04;80.33;99447.17;103365;1313;61482;-76
2023/01/16 03:44:17;;;;;;;;;;;;;;;3.03;80.34;99452.61;103538;1313;59381;-76
2023/01/16 03:46:49;;;;;;;;;;;;;;;3.02;80.30;99450.06;103599;1309;72953;-76
2023/01/16 03:49:17;;;;;;;;;;;;;;;3.00;80.31;99451.77;103515;1309;69666;-76
2023/01/16 03:51:45;;;;;;;;;;;;;;;2.98;80.24;99449.58;103896;1303;71690;-76
2023/01/16 03:54:16;;;;;;;;;;;;;;;2.96;80.24;99448.23;103952;1303;59855;-76
2023/01/16 03:57:05;;;;;;;;;;;;;;;2.94;80.30;99447.54;104039;1303;61162;-76
2023/01/16 03:59:30;;;;;;;;;;;;;;;2.93;80.20;99450.27;103696;1306;72557;-76
2023/01/16 04:02:18;;;;;;;;;;;;;;;2.92;80.25;99448.23;103573;1310;207789;-76
2023/01/16 04:04:45;;;;;;;;;;;;;;;2.91;80.26;99449.09;104686;1306;72563;-76
2023/01/16 04:07:24;;;;;;;;;;;;;;;2.91;80.36;99448.41;104757;1306;58796;-76
2023/01/16 04:09:59;;;;;;;;;;;;;;;2.92;80.31;99448.23;105153;1303;59675;-76
2023/01/16 04:12:47;;;;;;;;;;;;;;;2.95;80.35;99449.24;105182;1300;74087;-77
2023/01/16 04:15:13;;;;;;;;;;;;;;;2.97;80.23;99449.92;104840;1295;69655;-77
2023/01/16 04:17:39;;;;;;;;;;;;;;;2.97;80.27;99448.39;105552;1296;59541;-78
2023/01/16 04:20:06;;;;;;;;;;;;;;;2.97;80.23;99449.57;105512;1297;59577;-77
2023/01/16 04:22:31;;;;;;;;;;;;;;;2.99;80.27;99447.70;105581;1295;59051;-77
2023/01/16 04:24:58;;;;;;;;;;;;;;;2.99;80.21;99442.60;105564;1295;59757;-77
2023/01/16 04:27:23;;;;;;;;;;;;;;;2.99;80.21;99439.19;105602;1297;59146;-77
2023/01/16 04:29:49;;;;;;;;;;;;;;;2.98;80.17;99436.30;105478;1296;60613;-77
2023/01/16 04:32:14;;;;;;;;;;;;;;;2.97;80.18;99428.81;105639;1296;59160;-77
2023/01/16 04:34:39;;;;;;;;;;;;;;;2.96;80.14;99428.64;105655;1295;59501;-77
2023/01/16 04:37:05;;;;;;;;;;;;;;;2.93;80.21;99424.91;106046;1288;59267;-77
2023/01/16 04:39:31;;;;;;;;;;;;;;;2.92;80.13;99428.83;105427;1288;61394;-76
2023/01/16 04:41:56;;;;;;;;;;;;;;;2.89;80.08;99421.70;105194;1287;61431;-77
2023/01/16 04:44:21;;;;;;;;;;;;;;;2.86;80.13;99419.66;105130;1288;61262;-76
2023/01/16 04:46:47;;;;;;;;;;;;;;;2.83;80.13;99422.91;105032;1288;68797;-76
2023/01/16 04:49:12;;;;;;;;;;;;;;;2.81;80.21;99419.85;105007;1289;61250;-77
2023/01/16 04:51:38;;;;;;;;;;;;;;;2.79;80.20;99418.50;105157;1289;61282;-76
2023/01/16 04:54:05;;;;;;;;;;;;;;;2.74;80.14;99419.88;105191;1288;61216;-76
2023/01/16 04:56:30;;;;;;;;;;;;;;;2.70;80.16;99417.52;105147;1289;61283;-76
2023/01/16 04:58:56;;;;;;;;;;;;;;;2.64;80.13;99420.25;105002;1288;60501;-76
2023/01/16 05:01:21;;;;;;;;;;;;;;;2.59;80.09;99417.57;105131;1288;61299;-76
2023/01/16 05:03:46;;;;;;;;;;;;;;;2.55;80.11;99415.55;105247;1291;59569;-76
2023/01/16 05:06:12;;;;;;;;;;;;;;;2.50;80.13;99413.35;105199;1288;61261;-76
2023/01/16 05:08:37;;;;;;;;;;;;;;;2.45;80.15;99413.20;105052;1288;61262;-76
2023/01/16 05:11:03;;;;;;;;;;;;;;;2.40;80.15;99413.71;105299;1287;61300;-76
2023/01/16 05:13:28;;;;;;;;;;;;;;;2.36;80.09;99410.67;105229;1288;61335;-76
2023/01/16 05:15:54;;;;;;;;;;;;;;;2.30;80.06;99412.88;106253;1287;59164;-76
2023/01/16 05:18:19;;;;;;;;;;;;;;;2.26;80.09;99408.64;106229;1288;59336;-76
2023/01/16 05:20:44;;;;;;;;;;;;;;;2.23;80.17;99405.23;106137;1288;59444;-76
2023/01/16 05:23:10;;;;;;;;;;;;;;;2.21;80.12;99403.04;106294;1287;59078;-77
2023/01/16 05:25:36;;;;;;;;;;;;;;;2.20;80.11;99401.17;106292;1287;73229;-77
2023/01/16 05:28:01;;;;;;;;;;;;;;;2.17;80.08;99395.91;106295;1287;59266;-76
2023/01/16 05:30:27;;;;;;;;;;;;;;;2.15;80.06;99392.85;106350;1287;59081;-76
2023/01/16 05:32:52;;;;;;;;;;;;;;;2.13;80.12;99392.16;106371;1288;59095;-76
2023/01/16 05:35:19;;;;;;;;;;;;;;;2.12;80.08;99394.73;106277;1290;59403;-74
2023/01/16 05:37:44;;;;;;;;;;;;;;;2.11;80.05;99392.67;106127;1288;68153;-74
2023/01/16 05:40:10;;;;;;;;;;;;;;;2.08;80.03;99398.46;106124;1287;59138;-75
2023/01/16 05:42:36;;;;;;;;;;;;;;;2.08;80.06;99393.05;106306;1288;58997;-75
2023/01/16 05:45:01;;;;;;;;;;;;;;;2.08;80.10;99385.22;106286;1287;59025;-75
2023/01/16 05:47:26;;;;;;;;;;;;;;;2.07;80.06;99385.91;106330;1287;59440;-75
2023/01/16 05:49:52;;;;;;;;;;;;;;;2.04;80.00;99382.19;106283;1288;59123;-74
2023/01/16 05:52:17;;;;;;;;;;;;;;;2.03;80.03;99383.71;106282;1288;59524;-74
2023/01/16 05:54:43;;;;;;;;;;;;;;;2.01;80.02;99379.30;106286;1287;59113;-74
2023/01/16 05:57:08;;;;;;;;;;;;;;;1.99;80.05;99379.98;106371;1288;59197;-74
2023/01/16 05:59:33;;;;;;;;;;;;;;;1.98;80.12;99374.37;106211;1288;59916;-74
2023/01/16 06:01:59;;;;;;;;;;;;;;;1.96;80.00;99373.36;106324;1288;59021;-74
2023/01/16 06:04:24;;;;;;;;;;;;;;;1.93;80.04;99375.58;106137;1288;58965;-74
2023/01/16 06:06:50;;;;;;;;;;;;;;;1.92;80.12;99372.17;106290;1287;59443;-74
2023/01/16 06:09:16;;;;;;;;;;;;;;;1.91;80.11;99370.48;106270;1287;59070;-75
2023/01/16 06:11:41;;;;;;;;;;;;;;;1.92;80.15;99367.59;106244;1288;59273;-75
2023/01/16 06:14:06;;;;;;;;;;;;;;;1.92;80.11;99367.07;106272;1287;59046;-74
2023/01/16 06:16:32;;;;;;;;;;;;;;;1.92;80.08;99366.40;106292;1287;59512;-74
2023/01/16 06:18:57;;;;;;;;;;;;;;;1.91;80.09;99368.77;106100;1289;59462;-74
2023/01/16 06:21:22;;;;;;;;;;;;;;;1.90;80.04;99364.70;106309;1287;59395;-74
2023/01/16 06:23:48;;;;;;;;;;;;;;;1.90;80.11;99365.38;106301;1287;59330;-74
2023/01/16 06:26:13;;;;;;;;;;;;;;;1.90;80.16;99361.64;105837;1287;61241;-74
2023/01/16 06:28:38;;;;;;;;;;;;;;;1.88;80.12;99359.43;105143;1288;61343;-74
2023/01/16 06:31:04;;;;;;;;;;;;;;;1.87;80.07;99356.71;105161;1287;61233;-74
2023/01/16 06:33:30;;;;;;;;;;;;;;;1.87;80.11;99357.91;105168;1288;59778;-74
2023/01/16 06:35:55;;;;;;;;;;;;;;;1.85;80.11;99358.08;105234;1288;61303;-74
2023/01/16 06:38:21;;;;;;;;;;;;;;;1.83;80.08;99358.24;105158;1288;61266;-74
2023/01/16 06:40:46;;;;;;;;;;;;;;;1.80;80.11;99350.27;101826;1288;5003791;-74
2023/01/16 06:43:11;;;;;;;;;;;;;;;1.79;80.13;99348.40;106081;1289;59391;-74
2023/01/16 06:45:37;;;;;;;;;;;;;;;1.79;80.18;99349.42;106300;1288;58980;-75
2023/01/16 06:48:03;;;;;;;;;;;;;;;1.78;80.10;99348.73;106297;1287;69709;-74
2023/01/16 06:50:28;;;;;;;;;;;;;;;1.78;80.09;99346.02;106225;1287;59707;-74
2023/01/16 06:52:53;;;;;;;;;;;;;;;1.78;80.13;99344.31;106036;1291;59271;-74
2023/01/16 06:55:18;;;;;;;;;;;;;;;1.79;80.12;99347.04;106142;1287;59209;-74
2023/01/16 06:57:44;;;;;;;;;;;;;;;1.80;80.12;99345.00;106204;1291;59488;-76
2023/01/16 07:00:10;;;;;;;;;;;;;;;1.80;80.12;99346.19;106004;1289;59186;-76
2023/01/16 07:02:39;;;;;;;;;;;;;;;1.79;80.11;99346.86;106231;1288;59430;-76
2023/01/16 07:05:05;;;;;;;;;;;;;;;1.79;80.10;99346.70;106240;1288;58813;-76
2023/01/16 07:07:31;;;;;;;;;;;;;;;1.79;80.12;99345.51;105105;1288;75354;-76
2023/01/16 07:09:56;;;;;;;;;;;;;;;1.80;80.16;99348.90;105094;1288;61379;-76
2023/01/16 07:12:21;;;;;;;;;;;;;;;1.80;80.17;99347.55;105122;1288;61241;-75
2023/01/16 07:22:59;;;;;;;;;;;;;;;1.86;80.19;99348.73;105141;1288;71371;-76
2023/01/16 07:25:35;;;;;;;;;;;;;;;1.87;80.23;99346.19;105123;1288;59706;-76
2023/01/16 07:28:00;;;;;;;;;;;;;;;1.89;80.19;99346.02;106052;1289;60284;-76
2023/01/16 07:30:26;;;;;;;;;;;;;;;1.92;80.25;99349.23;106015;1288;59332;-76
2023/01/16 07:32:51;;;;;;;;;;;;;;;1.93;80.19;99346.69;106238;1287;59301;-76
2023/01/16 07:35:16;;;;;;;;;;;;;;;1.96;80.21;99342.77;106161;1288;59304;-76
2023/01/16 07:37:45;;;;;;;;;;;;;;;1.98;80.20;99340.73;106286;1287;58913;-76
2023/01/16 07:40:11;;;;;;;;;;;;;;;2.01;80.22;99335.28;106196;1288;73463;-76
2023/01/16 07:42:36;;;;;;;;;;;;;;;2.04;80.19;99335.45;106143;1289;59233;-76
2023/01/16 07:45:01;;;;;;;;;;;;;;;2.06;80.14;99329.83;106176;1288;59321;-76
2023/01/16 07:47:27;;;;;;;;;;;;;;;2.08;80.20;99325.73;106081;1288;59522;-76
2023/01/16 07:49:53;;;;;;;;;;;;;;;2.10;80.14;99322.83;105474;1288;61266;-75
2023/01/16 07:52:18;;;;;;;;;;;;;;;2.12;80.19;99325.71;105156;1287;61355;-75
2023/01/16 07:54:44;;;;;;;;;;;;;;;2.15;80.24;99325.36;105086;1289;62066;-75
2023/01/16 07:57:09;;;;;;;;;;;;;;;2.17;80.27;99326.38;105140;1287;61295;-76
2023/01/16 07:59:34;;;;;;;;;;;;;;;2.20;80.26;99330.61;104969;1288;59676;-76
2023/01/16 08:02:01;;;;;;;;;;;;;;;2.22;80.25;99332.48;105131;1288;61275;-76
2023/01/16 08:04:27;;;;;;;;;;;;;;;2.24;80.23;99331.45;105119;1288;70851;-76
2023/01/16 08:06:52;;;;;;;;;;;;;;;2.25;80.20;99331.28;104972;1289;61488;-76
2023/01/16 08:09:17;;;;;;;;;;;;;;;2.25;80.17;99336.38;105069;1291;61476;-76
2023/01/16 08:11:46;;;;;;;;;;;;;;;2.25;80.20;99337.05;105133;1288;61577;-76
2023/01/16 08:14:12;;;;;;;;;;;;;;;2.26;80.22;99336.89;105086;1288;61154;-76
2023/01/16 08:16:37;;;;;;;;;;;;;;;2.28;80.23;99337.23;104986;1293;59479;-76
2023/01/16 08:19:03;;;;;;;;;;;;;;;2.29;80.25;99330.77;105110;1288;61231;-76
2023/01/16 08:21:28;;;;;;;;;;;;;;;2.32;80.23;99332.80;104995;1289;61394;-76
2023/01/16 08:23:54;;;;;;;;;;;;;;;2.36;80.28;99333.11;105064;1288;67113;-76
2023/01/16 08:26:20;;;;;;;;;;;;;;;2.42;80.31;99340.41;105168;1288;61352;-76
2023/01/16 08:28:45;;;;;;;;;;;;;;;2.47;80.33;99335.63;105030;1288;61546;-76
2023/01/16 08:31:13;;;;;;;;;;;;;;;2.54;80.32;99331.85;106036;1288;60340;-77
2023/01/16 08:33:39;;;;;;;;;;;;;;;2.60;80.26;99328.09;106078;1288;59192;-77
2023/01/16 08:36:05;;;;;;;;;;;;;;;2.66;80.27;99320.37;106114;1288;59328;-77
2023/01/16 08:38:31;;;;;;;;;;;;;;;2.73;80.26;99325.11;106182;1288;59066;-77
2023/01/16 08:40:56;;;;;;;;;;;;;;;2.80;80.22;99319.98;106067;1288;59928;-77
2023/01/16 08:51:44;;;;;;;;;;;;;;;3.08;80.20;99300.56;106029;1288;58858;-77
2023/01/16 08:54:09;;;;;;;;;;;;;;;3.15;80.20;99296.57;105219;1289;61370;-76
2023/01/16 08:56:36;;;;;;;;;;;;;;;3.21;80.22;99298.57;105247;1287;61269;-79
2023/01/16 08:59:02;;;;;;;;;;;;;;;3.28;80.22;99297.67;105127;1290;61350;-76
2023/01/16 09:01:27;;;;;;;;;;;;;;;3.32;80.18;99288.09;105158;1292;61210;-76
2023/01/16 09:03:52;;;;;;;;;;;;;;;3.37;80.17;99285.50;105218;1290;61196;-76
2023/01/16 09:06:18;;;;;;;;;;;;;;;3.42;80.14;99285.98;105213;1292;72132;-76
2023/01/16 09:08:43;;;;;;;;;;;;;;;3.47;80.31;99284.91;105155;1290;61224;-76
2023/01/16 09:13:52;;;;;;;;;;;;;;;3.58;80.24;99283.45;105261;1288;59152;-76
2023/01/16 09:16:19;;;;;;;;;;;;;;;3.64;80.24;99277.73;105167;1288;61778;-76
2023/01/16 09:18:45;;;;;;;;;;;;;;;3.71;80.23;99276.83;105113;1294;61330;-76
2023/01/16 09:21:10;;;;;;;;;;;;;;;3.77;80.23;99273.69;105147;1289;61016;-76
2023/01/16 09:23:36;;;;;;;;;;;;;;;3.84;80.24;99270.73;105170;1291;62346;-76
2023/01/16 09:26:01;;;;;;;;;;;;;;;3.90;80.25;99268.27;105250;1289;61427;-76
2023/01/16 09:28:26;;;;;;;;;;;;;;;3.95;80.27;99263.27;105222;1289;72816;-76
2023/01/16 09:30:52;;;;;;;;;;;;;;;4.00;80.23;99260.83;105053;1288;61260;-76
2023/01/16 09:33:17;;;;;;;;;;;;;;;4.06;80.23;99262.48;105153;1292;61958;-77
2023/01/16 09:35:42;;;;;;;;;;;;;;;4.11;80.33;99259.17;105102;1288;61225;-76
2023/01/16 09:38:08;;;;;;;;;;;;;;;4.18;80.22;99259.05;105182;1288;60656;-76
2023/01/16 09:40:33;;;;;;;;;;;;;;;4.25;80.26;99256.25;105025;1294;61340;-76
2023/01/16 09:43:37;;;;;;;;;;;;;;;4.32;80.17;99258.04;105150;1288;61337;-76
2023/01/16 09:46:26;;;;;;;;;;;;;;;4.41;80.26;99249.23;105119;1289;59519;-76
2023/01/16 09:49:08;;;;;;;;;;;;;;;4.48;80.20;99243.00;105053;1288;60446;-76
2023/01/16 09:51:40;;;;;;;;;;;;;;;4.51;80.12;99243.80;105214;1288;73934;-76
2023/01/16 09:59:48;;;;;;;;;;;;;;;4.59;80.09;99233.80;105042;1287;61285;-76
2023/01/16 10:02:16;;;;;;;;;;;;;;;4.60;80.15;99228.49;104993;1289;59811;-76
2023/01/16 10:04:42;;;;;;;;;;;;;;;4.62;80.17;99221.98;105192;1287;75446;-76
2023/01/16 10:07:25;;;;;;;;;;;;;;;4.65;80.15;99220.23;105092;1288;60692;-77
2023/01/16 10:10:11;;;;;;;;;;;;;;;4.68;80.13;99212.49;105157;1289;72933;-76
2023/01/16 10:12:37;;;;;;;;;;;;;;;4.71;80.10;99213.98;104677;1296;61047;-76
2023/01/16 10:15:22;;;;;;;;;;;;;;;4.74;80.06;99206.08;104619;1294;61249;-76
2023/01/16 10:18:08;;;;;;;;;;;;;;;4.75;80.00;99201.11;104112;1304;74169;-76
2023/01/16 10:20:43;;;;;;;;;;;;;;;4.79;80.06;99193.20;103783;1306;68094;-76
2023/01/16 10:23:38;;;;;;;;;;;;;;;4.83;80.03;99185.63;103738;1306;72894;-76
2023/01/16 10:26:07;;;;;;;;;;;;;;;4.85;80.00;99178.23;103053;1316;61567;-76
2023/01/16 10:28:58;;;;;;;;;;;;;;;4.88;80.04;99169.15;103075;1315;59922;-76
2023/01/16 10:31:27;;;;;;;;;;;;;;;4.92;80.05;99159.69;102557;1318;73014;-76
2023/01/16 10:34:12;;;;;;;;;;;;;;;4.96;80.15;99151.09;102598;1318;69044;-76
2023/01/16 10:36:45;;;;;;;;;;;;;;;4.99;80.00;99149.33;102373;1321;73911;-76
2023/01/16 10:39:12;;;;;;;;;;;;;;;5.02;79.99;99143.84;102343;1321;59916;-76
2023/01/16 10:50:03;;;;;;;;;;;;;;;5.15;79.96;99127.02;102473;1318;73252;-76
2023/01/16 10:52:29;;;;;;;;;;;;;;;5.18;79.86;99121.34;102717;1323;61311;-77
2023/01/16 10:54:56;;;;;;;;;;;;;;;5.22;79.78;99116.27;102862;1314;60461;-76
2023/01/16 10:57:22;;;;;;;;;;;;;;;5.26;79.93;99111.92;103194;1309;61397;-76
2023/01/16 10:59:50;;;;;;;;;;;;;;;5.34;79.91;99107.52;103794;1308;61285;-76
2023/01/16 11:02:19;;;;;;;;;;;;;;;5.40;79.89;99104.31;103625;1304;71664;-76
2023/01/16 11:04:45;;;;;;;;;;;;;;;5.47;79.89;99092.40;103948;1303;63646;-76
2023/01/16 11:07:18;;;;;;;;;;;;;;;5.53;79.88;99084.41;103989;1303;221553;-76
2023/01/16 11:09:45;;;;;;;;;;;;;;;5.62;79.98;99073.79;104375;1297;72619;-76
2023/01/16 11:21:24;;;;;;;;;;;;;;;5.80;79.82;99033.56;104925;1291;61650;-76
2023/01/16 11:23:56;;;;;;;;;;;;;;;5.79;79.57;99022.47;104995;1290;74600;-76
2023/01/16 11:26:21;;;;;;;;;;;;;;;5.76;79.62;99022.70;105010;1290;68917;-76
2023/01/16 11:28:47;;;;;;;;;;;;;;;5.73;79.61;99017.64;104962;1291;61496;-76
2023/01/16 11:31:17;;;;;;;;;;;;;;;5.71;79.56;99015.64;104971;1290;61277;-76
2023/01/16 11:34:00;;;;;;;;;;;;;;;5.73;79.64;99017.13;105081;1290;60037;-75
2023/01/16 11:36:27;;;;;;;;;;;;;;;5.75;79.65;99013.32;105000;1290;74057;-75
2023/01/16 11:38:53;;;;;;;;;;;;;;;5.78;79.59;99009.99;105074;1290;68187;-76
2023/01/16 11:41:22;;;;;;;;;;;;;;;5.79;79.52;99008.44;105077;1291;61345;-76
2023/01/16 11:46:56;;;;;;;;;;;;;;;5.83;79.49;98999.28;104990;1289;62347;-76
2023/01/16 11:49:24;;;;;;;;;;;;;;;5.85;79.36;98994.97;105000;1290;74752;-76
2023/01/16 11:51:52;;;;;;;;;;;;;;;5.87;79.39;98988.27;104941;1294;68830;-76
2023/01/16 11:54:22;;;;;;;;;;;;;;;5.89;79.45;98992.17;104946;1291;71342;-76
2023/01/16 11:56:56;;;;;;;;;;;;;;;5.91;79.37;98987.34;105966;1290;59725;-77
2023/01/16 11:59:40;;;;;;;;;;;;;;;5.93;79.35;98983.70;106056;1289;58916;-77
2023/01/16 12:02:28;;;;;;;;;;;;;;;5.95;79.25;98982.27;105718;1287;74975;-77
2023/01/16 12:07:54;;;;;;;;;;;;;;;5.98;79.22;98971.09;104576;1294;72619;-76
2023/01/16 12:10:38;;;;;;;;;;;;;;;5.99;79.07;98970.56;104603;1293;59658;-77
2023/01/16 12:15:56;;;;;;;;;;;;;;;6.00;79.06;98962.33;104534;1294;73502;-76
2023/01/16 12:18:41;;;;;;;;;;;;;;;5.99;78.83;98960.83;104580;1293;67893;-76
2023/01/16 12:21:15;;;;;;;;;;;;;;;5.97;78.91;98953.85;104109;1300;72493;-76
2023/01/16 12:24:04;;;;;;;;;;;;;;;5.95;78.77;98949.45;104009;1300;59669;-76
2023/01/16 12:26:31;;;;;;;;;;;;;;;5.95;78.88;98947.05;104127;1299;59896;-75
2023/01/16 12:29:21;;;;;;;;;;;;;;;5.95;78.92;98940.20;104240;1300;74633;-76
2023/01/16 12:31:57;;;;;;;;;;;;;;;5.95;78.88;98935.77;103615;1311;67498;-76
2023/01/16 12:34:41;;;;;;;;;;;;;;;5.94;78.77;98934.92;103658;1306;71435;-76
2023/01/16 12:37:21;;;;;;;;;;;;;;;5.94;78.75;98927.41;103630;1306;59525;-77
2023/01/16 12:40:05;;;;;;;;;;;;;;;5.93;78.75;98927.09;103518;1308;59707;-77
2023/01/16 12:45:36;;;;;;;;;;;;;;;5.92;78.71;98906.93;104003;1302;66674;-78
2023/01/16 12:48:21;;;;;;;;;;;;;;;5.91;78.62;98899.77;103997;1303;70662;-77
2023/01/16 12:51:09;;;;;;;;;;;;;;;5.92;78.66;98897.02;103970;1302;61365;-77
2023/01/16 12:54:04;;;;;;;;;;;;;;;5.92;78.47;98887.63;103411;1307;61311;-77
2023/01/16 12:56:35;;;;;;;;;;;;;;;5.92;78.52;98885.40;102926;1317;74504;-77
2023/01/16 12:59:19;;;;;;;;;;;;;;;5.92;78.49;98884.71;103158;1308;68605;-77
2023/01/16 13:01:46;;;;;;;;;;;;;;;5.93;78.37;98882.80;104263;1308;71570;-77
2023/01/16 13:04:24;;;;;;;;;;;;;;;5.95;78.47;98879.52;103885;1310;59223;-76
2023/01/16 13:06:52;;;;;;;;;;;;;;;5.95;78.43;98873.84;103329;1311;61218;-76
2023/01/16 13:09:23;;;;;;;;;;;;;;;5.98;78.23;98872.77;103513;1305;74209;-77
2023/01/16 13:14:59;;;;;;;;;;;;;;;5.92;78.11;98864.01;103845;1308;72628;-76
2023/01/16 13:17:27;;;;;;;;;;;;;;;5.86;78.12;98861.57;103789;1305;59300;-76
2023/01/16 13:19:54;;;;;;;;;;;;;;;5.81;78.15;98857.08;103789;1305;59828;-75
2023/01/16 13:22:27;;;;;;;;;;;;;;;5.76;78.07;98850.52;103819;1308;61126;-76
2023/01/16 13:25:00;;;;;;;;;;;;;;;5.75;78.17;98846.81;103822;1305;68696;-76
2023/01/16 13:27:35;;;;;;;;;;;;;;;5.74;78.29;98841.16;103789;1305;73259;-76
2023/01/16 13:30:06;;;;;;;;;;;;;;;5.76;78.28;98839.77;103843;1305;59794;-76
2023/01/16 13:32:52;;;;;;;;;;;;;;;5.77;78.42;98838.03;104405;1289;60202;-76
2023/01/16 13:35:23;;;;;;;;;;;;;;;5.76;78.19;98838.39;104672;1295;73726;-77
2023/01/16 13:38:18;;;;;;;;;;;;;;;5.75;78.11;98834.32;104672;1293;68048;-74
2023/01/16 13:40:55;;;;;;;;;;;;;;;5.74;78.28;98827.50;104219;1300;71010;-74
2023/01/16 13:46:08;;;;;;;;;;;;;;;5.68;78.00;98819.30;104175;1300;61235;-73
2023/01/16 13:48:36;;;;;;;;;;;;;;;5.66;77.95;98822.44;104304;1300;61399;-74
2023/01/16 13:51:23;;;;;;;;;;;;;;;5.64;78.17;98815.46;104113;1302;66883;-73
2023/01/16 13:54:02;;;;;;;;;;;;;;;5.61;78.13;98811.12;104264;1304;72955;-75
2023/01/16 13:56:30;;;;;;;;;;;;;;;5.57;78.07;98807.61;104129;1300;61054;-75
2023/01/16 13:58:59;;;;;;;;;;;;;;;5.54;78.08;98806.16;104153;1304;60140;-75
2023/01/16 14:01:30;;;;;;;;;;;;;;;5.50;78.02;98804.71;104905;1300;74716;-76
2023/01/16 14:04:14;;;;;;;;;;;;;;;5.46;78.01;98798.30;104917;1300;68521;-77